»·PEaware :: AAL394 KDFW-KTUL

AAL394 :: KDFW-KTUL

FLIGHT INFORMATION

Flight Status: Arrived
Operator:
American Airlines
More flights by this operator :: More flights under this callsign
Pilot: John H. (7647)
Aircraft: BOEING 737-800
(B738)
More flights by this aircraft type
Origin: KDFW Dallas-Ft Worth Intl
United States
Destination: KTUL Tulsa Intl
United States
More flights between these airports :: More routes between these airports
Route: GRABE8 EAKER TUL
File this flight plan on PilotEdge
Remarks:
Altitude:
(Current/Filed)
27,000ft
Speed:
(Current/Filed)
405kts
Departed: 23-Sep-18 08:33 AM
Arrived: 23-Sep-18 09:22 AM
Distance/Time
Traveled:
206nm/0:48
Distance/Time
To Go:
Arrived

Flight Plot

Page will automatically refresh every two minutes.

Flight plan parsing failed; only flown route is shown


Map Options




Map Legend


Flown Route
Filed Route
Departure Airport
Arrival Airport
Navaid (VOR, NDB)
Fix

Horizontal Profiles

Position Reports

Time Latitude Longitude Heading Altitude Ground
Speed
23-Sep-18 08:19 32.900051 -97.045737 150 603ft 0kts
23-Sep-18 08:20 32.900051 -97.045736 150 603ft 0kts
23-Sep-18 08:21 32.900051 -97.045736 150 603ft 0kts
23-Sep-18 08:22 32.900051 -97.045736 150 603ft 0kts
23-Sep-18 08:23 32.900051 -97.045736 150 603ft 0kts
23-Sep-18 08:24 32.900252 -97.045873 151 603ft 2kts
23-Sep-18 08:25 32.900768 -97.045685 240 603ft 2kts
23-Sep-18 08:26 32.900823 -97.045379 270 602ft 0kts
23-Sep-18 08:27 32.900823 -97.045379 270 602ft 0kts
23-Sep-18 08:28 32.900825 -97.045547 271 602ft 1kts
23-Sep-18 08:29 32.900817 -97.046486 266 604ft 5kts
23-Sep-18 08:30 32.901022 -97.048786 237 609ft 9kts
23-Sep-18 08:31 32.897656 -97.050520 180 608ft 20kts
23-Sep-18 08:32 32.889685 -97.048903 181 584ft 38kts
23-Sep-18 08:33 32.881060 -97.048960 181 569ft 21kts
23-Sep-18 08:34 32.881017 -97.050967 1 569ft 24kts
23-Sep-18 08:35 32.913462 -97.050313 0 1442ft 161kts
23-Sep-18 08:36 32.958266 -97.051095 359 3378ft 168kts
23-Sep-18 08:37 33.004796 -97.051977 0 5107ft 170kts
23-Sep-18 08:38 33.057008 -97.052893 0 5918ft 232kts
23-Sep-18 08:39 33.126970 -97.060553 353 7853ft 273kts
23-Sep-18 08:40 33.201998 -97.049993 19 10150ft 290kts
23-Sep-18 08:41 33.286538 -97.019983 16 11522ft 340kts
23-Sep-18 08:42 33.378635 -96.987599 16 13752ft 354kts
23-Sep-18 08:43 33.473954 -96.953593 17 15808ft 368kts
23-Sep-18 08:44 33.565518 -96.917637 16 17605ft 379kts
23-Sep-18 08:45 33.666459 -96.877927 16 19453ft 390kts
23-Sep-18 08:46 33.769878 -96.837198 16 21182ft 399kts
23-Sep-18 08:47 33.876075 -96.795310 16 22787ft 408kts
23-Sep-18 08:48 33.984332 -96.752561 17 24314ft 414kts
23-Sep-18 08:49 34.093787 -96.709200 16 25053ft 422kts
23-Sep-18 08:50 34.203856 -96.665477 16 25052ft 442kts
23-Sep-18 08:51 34.320804 -96.618891 17 25053ft 460kts
23-Sep-18 08:52 34.401432 -96.507458 83 24732ft 456kts
23-Sep-18 08:53 34.356779 -96.388154 155 23811ft 399kts
23-Sep-18 08:54 34.263060 -96.405632 230 21299ft 356kts
23-Sep-18 08:55 34.265653 -96.514621 309 18463ft 366kts
23-Sep-18 08:56 34.358658 -96.531550 30 15527ft 380kts
23-Sep-18 08:57 34.417617 -96.433688 43 12312ft 374kts
23-Sep-18 08:58 34.509032 -96.387158 15 11443ft 368kts
23-Sep-18 08:59 34.598828 -96.355905 16 10459ft 336kts
23-Sep-18 09:00 34.680947 -96.327345 16 9492ft 315kts
23-Sep-18 09:01 34.766069 -96.297678 17 8622ft 372kts
23-Sep-18 09:02 34.861199 -96.264389 17 8241ft 334kts
23-Sep-18 09:03 34.941827 -96.236170 16 8168ft 277kts
23-Sep-18 09:04 35.012789 -96.211258 16 7325ft 264kts
23-Sep-18 09:05 35.082347 -96.186820 16 6328ft 260kts
23-Sep-18 09:06 35.147737 -96.163802 17 5426ft 256kts
23-Sep-18 09:07 35.212142 -96.141119 16 5057ft 231kts
23-Sep-18 09:08 35.268168 -96.121322 16 5069ft 194kts
23-Sep-18 09:09 35.323431 -96.101721 16 5096ft 229kts
23-Sep-18 09:10 35.388297 -96.078746 16 5093ft 263kts
23-Sep-18 09:11 35.461328 -96.052777 16 5006ft 290kts
23-Sep-18 09:12 35.538234 -96.025375 16 5001ft 289kts
23-Sep-18 09:13 35.610671 -95.999422 16 5000ft 285kts
23-Sep-18 09:14 35.683252 -95.973383 16 5002ft 282kts
23-Sep-18 09:15 35.754463 -95.947836 16 4997ft 264kts
23-Sep-18 09:16 35.820271 -95.924145 16 4995ft 251kts
23-Sep-18 09:17 35.885270 -95.900737 16 5001ft 241kts
23-Sep-18 09:18 35.951699 -95.886126 0 4046ft 255kts
23-Sep-18 09:19 36.013520 -95.885937 0 3132ft 190kts
23-Sep-18 09:20 36.065942 -95.885794 0 2488ft 187kts
23-Sep-18 09:21 36.114300 -95.885632 1 1877ft 152kts
23-Sep-18 09:22 36.153088 -95.885553 2 1378ft 137kts
23-Sep-18 09:23 36.191001 -95.882828 3 681ft 140kts
23-Sep-18 09:24 36.212261 -95.881802 310 623ft 25kts
23-Sep-18 09:25 36.208808 -95.883647 182 632ft 14kts
23-Sep-18 09:26 36.203743 -95.883922 182 640ft 21kts
23-Sep-18 09:27 36.197250 -95.886190 199 647ft 28kts
23-Sep-18 09:28 36.193476 -95.888679 173 654ft 0kts
23-Sep-18 09:29 36.193476 -95.888679 173 654ft 0kts
23-Sep-18 09:30 36.193476 -95.888679 173 654ft 0kts
23-Sep-18 09:31 36.193476 -95.888679 173 654ft 0kts
23-Sep-18 09:32 36.193476 -95.888679 173 654ft 0kts
23-Sep-18 09:33 36.193476 -95.888679 173 654ft 0kts

Navigation Log

Ident Type
Flight plan parsing failed, navigation log unavailable